OISL

Details ICAO OISL (LRR)
Name LAR
Region Iran
Timezone Asia/Tehran (UTC+4.5)
Plans Departing 2
Arriving 5
Stats Elevation 2,641 ft / 805 m (AMSL)
Location 27.674725° 54.383278°
Runways 1
Magnetic Variation 2.625° E
Sunrise 2018-05-26 01:30:08 UTC / 2018-05-26 06:00:08 Local
Sunset 2018-05-26 15:11:43 UTC / 2018-05-26 19:41:43 Local
Advertisement - Login to hide

Runways

ID Width Length Bearing (true) Bearing (mag) Surface Threshold Offset Overrun Length
09 148 ft / 45 m 10,317 ft / 3,145 m 89.10° 86.47° Asphalt 0 ft / 0 m 190 ft / 58 m
27 148 ft / 45 m 10,317 ft / 3,145 m 269.12° 266.49° Asphalt 0 ft / 0 m 190 ft / 58 m

Map

Weather


0- 5 10 15 20 25 30 35+ Temperature / ° C

Clouds and Precipitation
Forecast for 2018-05-26 00:00 UTC. Updated 6 hours ago

Ground ~20,000 ft ~40,000 ft Winds

METAR

OISL 260400Z 00000KT CAVOK 28/07 Q1011

TAF

TAF OISL 252300Z 2600/2706 27004MPS 8000 NSC TEMPO 2608/2612 12006MPS

Frequencies

Tower 121.90 MHz INFO
Tower 127.35 MHz INFO
Warning: Do not use this data for real-world aviation or navigation. No guarantee of current accuracy is given.